Time;durP1;ratioP1;P1;durP2;ratioP2;P2;SDS_P1;SDS_P2;PMS_P1;PMS_P2;Temp;Humidity;BMP_temperature;BMP_pressure;BME280_temperature;BME280_humidity;BME280_pressure;Samples;Min_cycle;Max_cycle;Signal;HPM_P1;HPM_P2
2021/12/17 00:01:01;;;;;;;14.23;6.97;;;;;;;10.66;80.42;101748.50;5050850;28;20041;-71
2021/12/17 00:03:48;;;;;;;17.40;10.80;;;;;;;10.63;80.38;101737.84;5062689;28;20404;-72
2021/12/17 00:06:29;;;;;;;25.52;16.15;;;;;;;10.55;80.23;101741.13;5069628;28;20124;-72
2021/12/17 00:09:00;;;;;;;20.38;15.35;;;;;;;10.49;80.09;101735.66;5059664;28;20049;-72
2021/12/17 00:11:27;;;;;;;19.92;11.93;;;;;;;10.49;80.01;101731.28;5069025;28;20043;-71
2021/12/17 00:13:56;;;;;;;12.15;9.43;;;;;;;10.48;79.78;101728.56;5043676;28;20123;-72
2021/12/17 00:16:31;;;;;;;13.27;9.38;;;;;;;10.49;79.67;101733.00;5051071;28;20048;-71
2021/12/17 00:19:15;;;;;;;11.95;8.23;;;;;;;10.48;79.50;101742.66;5051170;28;20049;-71
2021/12/17 00:49:24;;;;;;;5.65;3.53;;;;;;;10.57;80.28;101736.75;5060717;28;20036;-72
2021/12/17 00:51:59;;;;;;;7.25;4.70;;;;;;;10.53;80.34;101742.81;5048671;28;20571;-71
2021/12/17 00:54:35;;;;;;;7.90;4.80;;;;;;;10.52;80.06;101726.06;5050389;28;20147;-72
2021/12/17 00:57:07;;;;;;;10.15;6.43;;;;;;;10.48;79.78;101716.28;5049022;28;20045;-72
2021/12/17 00:59:36;;;;;;;9.65;7.95;;;;;;;10.46;79.42;101709.13;5029440;28;20053;-71
2021/12/17 01:02:09;;;;;;;19.60;16.92;;;;;;;10.43;79.04;101717.88;5029156;28;20121;-71
2021/12/17 01:04:42;;;;;;;9.90;8.40;;;;;;;10.38;79.04;101711.53;5043375;28;20068;-72
2021/12/17 01:07:11;;;;;;;7.72;4.93;;;;;;;10.32;78.65;101709.59;5048935;28;20044;-72
2021/12/17 01:09:39;;;;;;;9.77;8.32;;;;;;;10.31;78.83;101713.09;5056600;28;20044;-72
2021/12/17 01:12:09;;;;;;;8.18;5.18;;;;;;;10.36;78.50;101705.34;5048955;28;20056;-72
2021/12/17 01:14:55;;;;;;;9.15;4.93;;;;;;;10.37;78.51;101702.72;5028025;28;20045;-72
2021/12/17 01:17:53;;;;;;;8.02;4.00;;;;;;;10.39;78.35;101693.13;5043502;28;20037;-72
2021/12/17 01:21:06;;;;;;;9.93;4.22;;;;;;;10.42;78.68;101694.06;5074688;28;20136;-71
2021/12/17 01:24:04;;;;;;;7.60;4.10;;;;;;;10.39;78.94;101687.84;5078677;28;20080;-71
2021/12/17 01:36:06;;;;;;;10.13;4.40;;;;;;;10.68;79.39;101695.75;5030795;28;20136;-72
2021/12/17 01:42:01;;;;;;;12.40;4.82;;;;;;;10.78;79.86;101684.59;5053295;28;20045;-72
2021/12/17 01:44:30;;;;;;;9.60;4.30;;;;;;;10.85;79.81;101670.72;5029451;28;20049;-72
2021/12/17 01:46:58;;;;;;;5.90;3.53;;;;;;;10.87;79.61;101681.34;5047344;28;20037;-72
2021/12/17 01:55:46;;;;;;;10.60;4.25;;;;;;;10.86;79.40;101677.81;5043776;28;20045;-71
2021/12/17 02:00:45;;;;;;;8.60;4.00;;;;;;;10.72;79.05;101672.13;5043910;28;20048;-73
2021/12/17 02:03:14;;;;;;;11.48;5.97;;;;;;;10.72;79.01;101658.91;5065271;28;20032;-72
2021/12/17 02:05:43;;;;;;;9.30;4.43;;;;;;;10.71;78.54;101666.78;5044098;28;20049;-72
2021/12/17 02:08:13;;;;;;;9.43;5.28;;;;;;;10.70;78.00;101667.63;5045044;28;20041;-72
2021/12/17 02:32:46;;;;;;;15.30;8.07;;;;;;;10.95;78.02;101635.81;5066555;28;20066;-72
2021/12/17 02:35:30;;;;;;;13.00;6.47;;;;;;;11.03;78.09;101636.91;5067510;28;20064;-74
2021/12/17 02:38:00;;;;;;;8.40;5.05;;;;;;;11.08;78.42;101632.66;5054464;28;20044;-73
2021/12/17 02:46:40;;;;;;;5.30;3.15;;;;;;;11.09;77.98;101623.84;5047655;28;20127;-74
2021/12/17 02:49:08;;;;;;;5.20;2.78;;;;;;;11.12;78.08;101623.97;5048359;28;20048;-74
2021/12/17 02:51:36;;;;;;;5.80;3.15;;;;;;;11.16;77.89;101632.84;5056250;28;20048;-73
2021/12/17 02:54:05;;;;;;;6.50;3.08;;;;;;;11.19;77.74;101620.63;5067396;28;20491;-74
2021/12/17 02:56:33;;;;;;;6.75;3.22;;;;;;;11.21;77.76;101618.03;5051101;28;20033;-74
2021/12/17 02:59:02;;;;;;;7.70;3.22;;;;;;;11.22;77.90;101616.28;5062964;28;20041;-73
2021/12/17 03:01:31;;;;;;;7.25;3.30;;;;;;;11.20;77.93;101613.59;5059626;28;20544;-74
2021/12/17 03:04:00;;;;;;;11.55;4.53;;;;;;;11.16;77.40;101615.25;5063712;28;20037;-73
2021/12/17 03:06:29;;;;;;;6.68;3.60;;;;;;;11.15;77.17;101613.47;5048569;28;20041;-73
2021/12/17 03:08:57;;;;;;;6.05;2.80;;;;;;;11.13;76.63;101615.19;5049948;28;20056;-73
2021/12/17 03:11:26;;;;;;;7.30;3.20;;;;;;;11.13;76.40;101611.63;5031048;28;20061;-73
2021/12/17 03:13:54;;;;;;;7.03;3.05;;;;;;;11.12;76.15;101613.38;5059967;28;20040;-73
2021/12/17 03:16:33;;;;;;;7.40;2.80;;;;;;;11.12;75.74;101607.19;5070822;28;20450;-73
2021/12/17 03:19:08;;;;;;;7.13;3.47;;;;;;;11.12;75.37;101613.38;5070198;28;20123;-73
2021/12/17 03:24:22;;;;;;;6.40;3.38;;;;;;;11.21;74.87;101612.75;5087048;28;20114;-72
2021/12/17 03:26:52;;;;;;;9.43;3.20;;;;;;;11.26;74.53;101610.22;5070420;28;20051;-73
2021/12/17 03:29:22;;;;;;;6.88;3.25;;;;;;;11.27;74.55;101607.63;5038462;28;20051;-72
2021/12/17 03:31:54;;;;;;;6.50;3.55;;;;;;;11.30;74.50;101606.78;5049952;28;20052;-73
2021/12/17 03:34:22;;;;;;;6.05;3.17;;;;;;;11.31;74.65;101611.22;5050280;28;20040;-73
2021/12/17 03:36:56;;;;;;;6.45;3.28;;;;;;;11.31;74.42;101603.28;5049370;28;20409;-73
2021/12/17 03:39:25;;;;;;;5.05;2.60;;;;;;;11.30;74.15;101612.06;5064361;28;20080;-73
2021/12/17 03:41:57;;;;;;;9.07;4.30;;;;;;;11.30;73.60;101612.97;5048220;28;20052;-73
2021/12/17 03:44:45;;;;;;;10.13;3.65;;;;;;;11.30;73.60;101605.03;5045279;28;20064;-73
2021/12/17 03:47:35;;;;;;;8.75;4.00;;;;;;;11.33;73.50;101618.34;5068310;28;20110;-73
2021/12/17 03:50:15;;;;;;;8.30;3.65;;;;;;;11.34;73.27;101609.56;5054957;28;20094;-74
2021/12/17 03:52:43;;;;;;;7.55;3.20;;;;;;;11.32;72.52;101615.66;5060284;28;20117;-73
2021/12/17 03:55:12;;;;;;;5.00;2.45;;;;;;;11.31;72.18;101614.75;5070361;28;20044;-73
2021/12/17 03:57:47;;;;;;;7.55;3.15;;;;;;;11.33;71.71;101620.09;5079127;28;20072;-74
2021/12/17 04:00:15;;;;;;;6.55;2.92;;;;;;;11.31;71.74;101614.75;5066306;28;20174;-73
2021/12/17 04:02:46;;;;;;;4.88;2.63;;;;;;;11.32;71.63;101626.22;5050856;28;20037;-73
2021/12/17 04:05:30;;;;;;;6.40;2.90;;;;;;;11.30;71.49;101618.25;5050403;28;20045;-74
2021/12/17 04:08:17;;;;;;;7.82;2.90;;;;;;;11.29;71.62;101619.09;5070432;28;20041;-74
2021/12/17 04:11:17;;;;;;;7.57;3.20;;;;;;;11.30;70.88;101612.06;5027655;28;20049;-74
2021/12/17 04:13:54;;;;;;;5.40;2.67;;;;;;;11.34;70.55;101617.50;5054442;28;20044;-74
2021/12/17 04:16:25;;;;;;;;;;;;;;;11.30;69.73;101620.00;5070746;28;20043;-74
2021/12/17 04:18:53;;;;;;;7.80;3.53;;;;;;;11.32;70.25;101626.22;5068996;28;19951;-73
2021/12/17 04:21:23;;;;;;;4.78;2.30;;;;;;;11.32;70.12;101631.53;5052681;28;20037;-74
2021/12/17 04:23:52;;;;;;;6.20;3.03;;;;;;;11.32;70.14;101629.78;5048059;28;20048;-75
2021/12/17 04:26:23;;;;;;;8.65;3.20;;;;;;;11.34;70.15;101629.81;5049793;28;20064;-74
2021/12/17 04:28:57;;;;;;;7.38;3.00;;;;;;;11.38;69.89;101631.69;5061990;28;20055;-74
2021/12/17 04:31:29;;;;;;;5.38;2.55;;;;;;;11.38;70.17;101632.56;5086636;28;20078;-74
2021/12/17 04:33:57;;;;;;;6.80;2.85;;;;;;;11.37;70.34;101629.88;5055372;28;20497;-73
2021/12/17 04:36:31;;;;;;;8.80;2.47;;;;;;;11.37;70.47;101632.53;5081993;28;20044;-74
2021/12/17 04:39:02;;;;;;;5.60;2.67;;;;;;;11.35;70.28;101637.81;5069143;28;20403;-75
2021/12/17 04:44:48;;;;;;;35.42;17.88;;;;;;;11.42;70.03;101638.84;5105395;27;20838;-75
2021/12/17 04:58:33;;;;;;;12.68;7.25;;;;;;;11.43;69.15;101641.50;5105152;27;20052;-74
2021/12/17 05:01:09;;;;;;;10.80;5.75;;;;;;;11.47;68.74;101634.56;5105280;27;20031;-75
2021/12/17 05:03:37;;;;;;;6.93;4.35;;;;;;;11.47;68.44;101622.25;5089229;27;20094;-74
2021/12/17 05:06:05;;;;;;;7.88;4.05;;;;;;;11.47;68.45;101632.81;5104633;27;20173;-74
2021/12/17 05:08:42;;;;;;;14.13;9.57;;;;;;;11.49;68.73;101624.91;5105339;28;20522;-75
2021/12/17 05:11:24;;;;;;;11.00;6.65;;;;;;;11.50;68.90;101634.63;5104889;28;20035;-74
2021/12/17 05:19:38;;;;;;;5.80;2.90;;;;;;;11.51;68.76;101645.25;5101253;27;20051;-74
2021/12/17 05:22:10;;;;;;;7.30;2.33;;;;;;;11.52;68.53;101646.16;5106310;27;20124;-74
2021/12/17 05:24:38;;;;;;;12.25;7.28;;;;;;;11.54;68.64;101647.09;5100735;27;20468;-74
2021/12/17 05:27:08;;;;;;;6.22;2.40;;;;;;;11.58;68.65;101641.03;5087579;27;20103;-74
2021/12/17 05:29:43;;;;;;;4.13;1.85;;;;;;;11.58;68.07;101648.97;5088457;28;20042;-74
2021/12/17 05:32:12;;;;;;;5.40;2.10;;;;;;;11.64;68.41;101648.22;5085716;28;20044;-73
2021/12/17 05:34:40;;;;;;;5.78;2.60;;;;;;;11.64;68.69;101651.75;5101537;28;20400;-74
2021/12/17 05:37:10;;;;;;;7.47;4.03;;;;;;;11.67;68.73;101651.84;5086091;28;20548;-74
2021/12/17 05:39:38;;;;;;;6.07;3.10;;;;;;;11.68;68.55;101650.09;5105850;27;20448;-74
2021/12/17 05:42:07;;;;;;;4.43;2.63;;;;;;;11.70;68.48;101649.25;5107870;27;20047;-74
2021/12/17 05:44:50;;;;;;;7.70;4.60;;;;;;;11.71;68.45;101648.41;5085690;28;20043;-74
2021/12/17 05:47:20;;;;;;;6.88;2.42;;;;;;;11.73;68.14;101654.66;5100984;27;20040;-75
2021/12/17 05:49:47;;;;;;;17.92;7.75;;;;;;;11.76;67.92;101664.41;5119606;27;20096;-73
2021/12/17 05:52:15;;;;;;;14.02;6.63;;;;;;;11.79;68.01;101664.50;5120398;27;20050;-73
2021/12/17 05:54:43;;;;;;;17.02;8.20;;;;;;;11.79;67.68;101662.75;5098042;28;20136;-74
2021/12/17 05:57:11;;;;;;;7.40;3.78;;;;;;;11.79;67.76;101662.75;5088753;28;20160;-73
2021/12/17 05:59:40;;;;;;;11.07;5.03;;;;;;;11.82;67.75;101659.28;5087274;28;20125;-72
2021/12/17 06:02:11;;;;;;;7.25;3.90;;;;;;;11.85;67.80;101669.97;5088954;28;20467;-73
2021/12/17 06:04:45;;;;;;;9.25;6.30;;;;;;;11.89;67.86;101664.78;5090445;28;20036;-73
2021/12/17 06:07:13;;;;;;;11.77;6.72;;;;;;;11.92;68.09;101664.84;5089489;28;20039;-73
2021/12/17 06:09:44;;;;;;;7.50;6.25;;;;;;;11.95;68.06;101670.22;5090514;28;20090;-73
2021/12/17 06:12:17;;;;;;;8.30;4.97;;;;;;;11.98;68.06;101678.25;5089501;28;20048;-73
2021/12/17 06:14:45;;;;;;;8.02;4.22;;;;;;;12.01;68.17;101674.78;5089727;28;20115;-73
2021/12/17 06:17:13;;;;;;;7.13;5.70;;;;;;;12.04;68.26;101672.19;5081528;28;20040;-73
2021/12/17 06:19:45;;;;;;;8.52;4.13;;;;;;;12.07;67.85;101661.69;5066160;28;20113;-73
2021/12/17 06:22:14;;;;;;;6.28;4.38;;;;;;;12.08;67.72;101670.53;5069482;28;20496;-73
2021/12/17 06:24:45;;;;;;;7.32;4.07;;;;;;;12.08;68.18;101670.53;5053997;28;20052;-73
2021/12/17 06:27:17;;;;;;;7.05;4.97;;;;;;;12.11;68.47;101676.78;5067958;27;20119;-74
2021/12/17 06:29:45;;;;;;;6.57;3.78;;;;;;;12.14;68.14;101676.84;5066493;28;20037;-74
2021/12/17 06:32:16;;;;;;;6.82;4.00;;;;;;;12.18;68.20;101673.44;5065724;28;20052;-73
2021/12/17 06:34:46;;;;;;;9.90;4.57;;;;;;;12.18;68.22;101675.19;5058974;28;20073;-72
2021/12/17 06:37:15;;;;;;;8.85;4.00;;;;;;;12.17;68.53;101676.03;5064425;28;20429;-73
2021/12/17 06:39:44;;;;;;;12.82;5.40;;;;;;;12.18;68.73;101684.00;5053790;28;20048;-72
2021/12/17 06:42:12;;;;;;;8.98;6.00;;;;;;;12.19;68.87;101684.91;5073300;28;20044;-73
2021/12/17 06:44:40;;;;;;;14.50;11.20;;;;;;;12.19;69.30;101701.69;5067887;28;20142;-72
2021/12/17 06:47:12;;;;;;;21.30;13.02;;;;;;;11.97;70.25;101687.03;5069814;28;20064;-74
2021/12/17 06:49:52;;;;;;;19.95;17.83;;;;;;;11.77;71.68;101690.03;5087971;28;20502;-73
2021/12/17 06:56:27;;;;;;;14.63;13.10;;;;;;;11.66;73.15;101691.47;5086205;28;20065;-74
2021/12/17 07:06:00;;;;;;;11.15;5.95;;;;;;;11.74;72.21;101698.78;5034891;28;20613;-74
2021/12/17 07:11:54;;;;;;;8.40;5.18;;;;;;;12.01;71.15;101708.28;5092765;27;20043;-73
2021/12/17 07:29:05;;;;;;;6.15;4.07;;;;;;;12.44;68.82;101719.03;5024641;28;20060;-73
2021/12/17 07:34:51;;;;;;;7.75;3.75;;;;;;;12.57;67.72;101723.75;4983661;28;20085;-73
2021/12/17 07:40:06;;;;;;;5.60;2.80;;;;;;;12.68;67.67;101731.94;5089576;27;20055;-73
2021/12/17 07:42:44;;;;;;;5.93;2.22;;;;;;;12.72;68.02;101724.13;5105556;27;20496;-72
2021/12/17 07:45:24;;;;;;;8.13;3.42;;;;;;;12.76;67.94;101722.41;5096369;27;20051;-73
2021/12/17 07:47:58;;;;;;;5.15;3.13;;;;;;;12.75;67.97;101724.16;5078605;27;20036;-73
2021/12/17 07:50:45;;;;;;;8.55;4.32;;;;;;;12.73;68.42;101723.22;5110583;27;20042;-73
2021/12/17 07:53:42;;;;;;;8.15;4.43;;;;;;;12.65;67.70;101716.88;5077756;28;20086;-71
2021/12/17 07:56:17;;;;;;;;;;;;;;;12.64;67.94;101731.00;5108087;27;20052;-71
2021/12/17 07:58:47;;;;;;;6.63;3.10;;;;;;;12.73;68.04;101728.53;5087871;28;19928;-72
2021/12/17 08:01:15;;;;;;;5.95;3.10;;;;;;;12.79;67.79;101722.50;5096542;27;20040;-71
2021/12/17 08:03:45;;;;;;;7.50;2.70;;;;;;;12.87;67.67;101731.47;5087672;28;20483;-71
2021/12/17 08:06:26;;;;;;;7.32;3.17;;;;;;;12.92;67.41;101734.25;5092591;28;20040;-71
2021/12/17 08:09:16;;;;;;;20.42;11.27;;;;;;;12.96;67.02;101730.81;5088573;28;20036;-71
2021/12/17 08:11:44;;;;;;;13.95;6.90;;;;;;;13.03;67.17;101730.97;5089039;28;20043;-71
2021/12/17 08:14:17;;;;;;;10.82;4.85;;;;;;;13.04;66.85;101734.50;5098041;28;20458;-71
2021/12/17 08:16:52;;;;;;;16.65;8.57;;;;;;;13.04;66.81;101735.41;5107601;28;20071;-71
2021/12/17 08:24:59;;;;;;;7.65;4.30;;;;;;;12.99;66.44;101725.56;5087292;27;20564;-73
2021/12/17 08:27:43;;;;;;;10.25;5.28;;;;;;;13.00;66.61;101730.88;5094665;28;20068;-73
2021/12/17 08:30:22;;;;;;;14.38;6.00;;;;;;;13.01;66.20;101726.47;5092401;28;20404;-73
2021/12/17 08:32:54;;;;;;;20.35;12.80;;;;;;;13.00;66.04;101724.69;5086631;28;20043;-73
2021/12/17 08:35:23;;;;;;;8.98;4.35;;;;;;;13.00;65.10;101722.94;5069283;28;20396;-73
2021/12/17 08:37:54;;;;;;;10.40;6.35;;;;;;;13.04;65.47;101722.16;5088233;28;20044;-73
2021/12/17 08:40:26;;;;;;;14.05;8.38;;;;;;;13.06;65.48;101717.75;5088214;28;20039;-73
2021/12/17 08:42:54;;;;;;;10.18;5.60;;;;;;;13.05;65.61;101717.75;5087717;28;20123;-74
2021/12/17 08:45:26;;;;;;;13.75;7.53;;;;;;;13.07;65.56;101718.66;5087424;28;20032;-73
2021/12/17 08:48:12;;;;;;;13.57;7.45;;;;;;;13.05;65.68;101720.41;5083824;28;20064;-73
2021/12/17 08:50:49;;;;;;;16.02;7.45;;;;;;;13.03;65.45;101719.47;5083841;28;20150;-73
2021/12/17 08:53:17;;;;;;;11.82;7.45;;;;;;;13.03;65.07;101711.50;5084448;28;20037;-73
2021/12/17 08:55:45;;;;;;;14.55;8.48;;;;;;;13.00;64.62;101714.97;5072188;28;20063;-72
2021/12/17 08:58:14;;;;;;;15.50;9.48;;;;;;;12.97;64.44;101704.34;5087986;28;20101;-70
2021/12/17 09:00:47;;;;;;;13.20;6.88;;;;;;;12.96;64.47;101706.94;5088100;28;20033;-71
2021/12/17 09:03:24;;;;;;;16.60;8.20;;;;;;;12.94;64.59;101706.91;5071294;28;20419;-70
2021/12/17 09:06:16;;;;;;;9.98;4.30;;;;;;;12.92;64.39;101706.00;5104386;28;20044;-73
2021/12/17 09:08:49;;;;;;;7.95;3.28;;;;;;;12.92;64.68;101707.75;5104162;28;20535;-72
2021/12/17 09:11:17;;;;;;;11.90;6.65;;;;;;;12.93;64.63;101709.56;5098054;28;20052;-73
2021/12/17 09:13:58;;;;;;;12.02;4.65;;;;;;;12.95;64.19;101705.16;5067560;28;20116;-72
2021/12/17 09:16:35;;;;;;;10.75;5.40;;;;;;;12.97;64.31;101706.09;5078588;28;20404;-72
2021/12/17 09:19:04;;;;;;;16.65;8.45;;;;;;;12.99;64.53;101699.97;5087369;28;20040;-72
2021/12/17 09:21:40;;;;;;;16.90;9.88;;;;;;;13.06;64.60;101693.03;5087651;28;20576;-72
2021/12/17 09:24:31;;;;;;;11.82;6.20;;;;;;;13.07;64.70;101686.84;5082362;28;20403;-72
2021/12/17 09:27:17;;;;;;;15.27;7.25;;;;;;;13.12;64.15;101680.84;5084660;28;20051;-73
2021/12/17 09:30:05;;;;;;;11.52;5.45;;;;;;;13.20;63.90;101675.66;5090395;28;20040;-73
2021/12/17 09:32:35;;;;;;;10.32;5.68;;;;;;;13.29;63.63;101673.19;5090972;28;20128;-73
2021/12/17 09:35:02;;;;;;;5.70;3.08;;;;;;;13.41;63.31;101668.13;5108227;28;20044;-73
2021/12/17 09:37:30;;;;;;;8.73;5.38;;;;;;;13.55;62.86;101658.66;5107954;28;20064;-73
2021/12/17 09:39:57;;;;;;;7.78;5.20;;;;;;;13.80;62.63;101661.72;5091355;28;20093;-72
2021/12/17 09:42:25;;;;;;;5.45;3.40;;;;;;;14.04;62.45;101654.19;5092175;28;20067;-73
2021/12/17 09:44:54;;;;;;;3.47;2.50;;;;;;;14.22;61.90;101656.22;5090618;28;20123;-73
2021/12/17 09:47:21;;;;;;;4.28;2.15;;;;;;;14.34;61.94;101641.34;5092233;28;20044;-73
2021/12/17 09:49:53;;;;;;;7.68;5.07;;;;;;;14.46;61.79;101640.66;5091987;28;20062;-72
2021/12/17 09:52:21;;;;;;;3.80;2.30;;;;;;;14.54;61.24;101638.09;5090443;28;20134;-73
2021/12/17 09:54:49;;;;;;;6.15;2.97;;;;;;;14.51;60.48;101638.06;5108176;28;20165;-73
2021/12/17 09:57:19;;;;;;;7.20;3.78;;;;;;;14.67;61.32;101629.41;5092347;28;20094;-74
2021/12/17 09:59:46;;;;;;;7.10;3.60;;;;;;;14.92;61.37;101631.50;5107385;28;20074;-73
2021/12/17 10:02:14;;;;;;;4.03;2.25;;;;;;;15.02;61.29;101625.44;5108447;28;20119;-73
2021/12/17 10:04:45;;;;;;;3.92;2.08;;;;;;;15.06;61.31;101619.25;5090909;28;20105;-72
2021/12/17 10:07:22;;;;;;;9.40;3.75;;;;;;;14.97;60.63;101618.25;5095125;28;20044;-71
2021/12/17 10:09:53;;;;;;;2.45;1.95;;;;;;;14.84;60.54;101614.56;5071465;28;20544;-70
2021/12/17 10:12:25;;;;;;;3.88;2.10;;;;;;;14.77;60.86;101604.72;5071803;28;20060;-70
2021/12/17 10:15:02;;;;;;;4.93;2.35;;;;;;;14.64;60.61;101608.09;5090616;27;20119;-71
2021/12/17 10:17:29;;;;;;;3.35;1.70;;;;;;;14.53;60.85;101601.78;5085765;27;20384;-70
2021/12/17 10:19:57;;;;;;;4.60;1.75;;;;;;;14.49;60.86;101606.16;5093484;27;20114;-70
2021/12/17 10:22:29;;;;;;;6.03;2.70;;;;;;;14.53;61.00;101601.78;5100994;27;20503;-72
2021/12/17 10:25:03;;;;;;;9.77;5.10;;;;;;;14.51;60.91;101591.13;5102599;28;20039;-71
2021/12/17 10:27:33;;;;;;;11.35;5.65;;;;;;;14.51;60.98;101587.56;5089577;28;20055;-72
2021/12/17 10:30:10;;;;;;;9.18;3.75;;;;;;;14.48;61.10;101583.13;5090447;28;20125;-71
2021/12/17 10:32:40;;;;;;;6.45;3.38;;;;;;;14.45;61.18;101580.41;5081396;28;20322;-71
2021/12/17 10:35:13;;;;;;;6.05;2.95;;;;;;;14.43;61.17;101578.63;5078349;27;20093;-72
2021/12/17 10:37:44;;;;;;;4.57;2.70;;;;;;;14.45;61.24;101575.09;5106662;27;20436;-71
2021/12/17 10:40:22;;;;;;;7.82;3.20;;;;;;;14.45;61.32;101580.41;5099398;28;20058;-71
2021/12/17 10:43:03;;;;;;;4.75;2.72;;;;;;;14.38;61.26;101572.34;5069909;28;20048;-71
2021/12/17 10:45:35;;;;;;;10.50;4.53;;;;;;;14.28;61.33;101572.19;5070663;28;20049;-72
2021/12/17 10:48:33;;;;;;;7.20;2.67;;;;;;;14.25;61.74;101571.25;5081316;28;20055;-72
2021/12/17 10:51:19;;;;;;;5.93;3.13;;;;;;;14.19;61.71;101572.06;5075775;28;20123;-71
2021/12/17 10:53:54;;;;;;;6.43;3.20;;;;;;;14.10;62.01;101571.97;5071967;27;20070;-72
2021/12/17 10:56:23;;;;;;;5.50;2.60;;;;;;;14.07;62.23;101557.72;5108398;27;20122;-71
2021/12/17 10:59:00;;;;;;;8.98;2.65;;;;;;;14.04;62.23;101563.00;5085406;27;20086;-72
2021/12/17 11:01:37;;;;;;;5.82;2.42;;;;;;;13.98;62.78;101554.97;5089652;27;20056;-72
2021/12/17 11:04:07;;;;;;;4.22;2.38;;;;;;;13.92;63.02;101551.31;5074554;28;20143;-72
2021/12/17 11:06:53;;;;;;;5.07;2.60;;;;;;;13.89;63.48;101558.38;5092839;27;20115;-71
2021/12/17 11:09:50;;;;;;;3.65;2.30;;;;;;;13.84;64.09;101560.97;5083334;28;20039;-72
2021/12/17 11:12:30;;;;;;;15.98;6.70;;;;;;;13.66;65.42;101559.75;5067679;27;20040;-72
2021/12/17 11:15:14;;;;;;;7.95;3.65;;;;;;;13.38;66.65;101561.09;5090869;27;20043;-71
2021/12/17 11:17:44;;;;;;;8.05;3.38;;;;;;;13.14;68.00;101562.44;5110127;27;20513;-71
2021/12/17 11:20:14;;;;;;;9.82;3.78;;;;;;;12.96;68.93;101562.06;5089947;27;20115;-71
2021/12/17 11:22:43;;;;;;;5.75;3.28;;;;;;;12.86;69.62;101560.13;5093829;27;20040;-71
2021/12/17 11:25:13;;;;;;;10.00;4.57;;;;;;;12.88;69.96;101560.13;5090269;28;20043;-71
2021/12/17 11:27:41;;;;;;;10.43;5.47;;;;;;;12.85;70.20;101555.69;5081350;28;20514;-71
2021/12/17 11:30:12;;;;;;;19.75;12.77;;;;;;;12.85;70.58;101555.69;5086137;28;20142;-71
2021/12/17 11:32:40;;;;;;;20.35;16.63;;;;;;;12.85;71.13;101558.34;5106737;27;20127;-71
2021/12/17 11:35:09;;;;;;;13.68;9.38;;;;;;;12.77;72.21;101544.03;5088514;28;20113;-70
2021/12/17 11:37:39;;;;;;;13.05;9.27;;;;;;;12.75;72.57;101545.75;5090595;28;20097;-71
2021/12/17 11:40:17;;;;;;;12.55;8.90;;;;;;;12.77;72.89;101549.34;5087197;28;20529;-71
2021/12/17 11:43:15;;;;;;;13.20;8.70;;;;;;;12.89;72.97;101557.50;5096466;27;20078;-71
2021/12/17 11:45:44;;;;;;;16.00;9.55;;;;;;;12.94;73.10;101544.34;5074458;28;20043;-71
2021/12/17 11:48:18;;;;;;;14.32;9.27;;;;;;;13.03;73.06;101534.81;5099917;28;20551;-72
2021/12/17 11:50:48;;;;;;;12.98;8.60;;;;;;;13.03;73.81;101541.88;5109286;27;20038;-71
2021/12/17 11:53:20;;;;;;;16.98;9.30;;;;;;;13.03;74.50;101540.13;5107177;27;20044;-75
2021/12/17 11:55:56;;;;;;;19.38;7.93;;;;;;;12.93;74.86;101527.53;5108812;27;20569;-73
2021/12/17 11:58:46;;;;;;;17.95;7.13;;;;;;;12.91;75.35;101529.28;5108759;27;20050;-73
2021/12/17 12:01:14;;;;;;;11.57;6.50;;;;;;;12.82;75.86;101518.50;5087798;28;20075;-72
2021/12/17 12:03:42;;;;;;;12.23;7.25;;;;;;;12.88;76.08;101513.31;5087988;28;20052;-72
2021/12/17 12:06:38;;;;;;;10.63;7.50;;;;;;;13.00;76.26;101512.66;5102940;27;20043;-71
2021/12/17 12:09:06;;;;;;;9.00;6.07;;;;;;;13.05;76.49;101511.00;5109429;27;20143;-72
2021/12/17 12:11:35;;;;;;;8.40;5.53;;;;;;;13.06;76.51;101507.47;5109494;27;20078;-72
2021/12/17 12:14:03;;;;;;;7.47;4.10;;;;;;;13.04;76.75;101503.91;5104598;27;20122;-72
2021/12/17 12:16:31;;;;;;;13.05;5.28;;;;;;;12.92;76.77;101511.63;5071408;28;20041;-71
2021/12/17 12:19:08;;;;;;;11.65;5.25;;;;;;;12.83;77.13;101509.72;5077981;28;20052;-71
2021/12/17 12:21:37;;;;;;;11.20;7.97;;;;;;;12.83;77.46;101511.47;5094200;27;20587;-71
2021/12/17 12:24:13;;;;;;;13.93;9.10;;;;;;;12.84;77.38;101510.59;5089426;28;20032;-71
2021/12/17 12:26:45;;;;;;;13.48;9.82;;;;;;;12.86;77.19;101515.06;5086355;28;20446;-72
2021/12/17 12:29:16;;;;;;;16.88;8.30;;;;;;;12.71;77.15;101510.38;5091897;28;20092;-72
2021/12/17 12:31:53;;;;;;;11.13;6.72;;;;;;;12.66;77.34;101512.06;5107834;27;20035;-72
2021/12/17 12:34:28;;;;;;;9.52;5.50;;;;;;;12.62;77.83;101514.59;5081595;28;20040;-72
2021/12/17 12:36:58;;;;;;;10.85;5.95;;;;;;;12.54;78.15;101508.25;5086899;28;20048;-71
2021/12/17 12:39:29;;;;;;;15.43;12.13;;;;;;;12.47;78.61;101506.38;5092260;27;20078;-72
2021/12/17 12:42:17;;;;;;;14.90;7.82;;;;;;;12.37;79.04;101510.56;5088378;28;20044;-71
2021/12/17 12:45:11;;;;;;;35.63;18.30;;;;;;;12.37;79.21;101516.78;5095303;28;20118;-72
2021/12/17 12:47:59;;;;;;;57.25;50.83;;;;;;;12.35;79.20;101513.19;5090730;28;20047;-72
2021/12/17 12:50:30;;;;;;;44.78;39.95;;;;;;;12.29;79.31;101501.56;5093614;27;20044;-72
2021/12/17 12:53:02;;;;;;;26.48;23.65;;;;;;;12.26;79.63;101498.88;5105585;27;20040;-72
2021/12/17 12:55:34;;;;;;;43.85;36.20;;;;;;;12.28;79.85;101489.19;5096387;28;20109;-71
2021/12/17 12:58:10;;;;;;;17.50;13.02;;;;;;;12.34;79.76;101482.28;5079686;28;20492;-71
2021/12/17 13:00:44;;;;;;;16.67;12.23;;;;;;;12.42;80.11;101485.06;5077255;28;20119;-71
2021/12/17 13:03:13;;;;;;;15.95;10.55;;;;;;;12.53;80.21;101486.19;5087826;28;20044;-71
2021/12/17 13:05:43;;;;;;;31.75;28.27;;;;;;;12.52;80.34;101476.47;5094885;27;20036;-70
2021/12/17 13:08:14;;;;;;;27.90;24.15;;;;;;;12.48;80.66;101476.34;5096240;28;20548;-71
2021/12/17 13:10:44;;;;;;;32.63;28.67;;;;;;;12.52;80.82;101464.97;5068241;28;20106;-70
2021/12/17 13:13:19;;;;;;;38.15;34.08;;;;;;;12.65;81.17;101467.88;5078845;28;20040;-70
2021/12/17 13:16:02;;;;;;;62.00;55.78;;;;;;;12.72;81.25;101459.19;5065051;28;20035;-70
2021/12/17 13:21:34;;;;;;;17.83;14.77;;;;;;;12.72;81.07;101456.53;5090411;28;20044;-71
2021/12/17 13:24:13;;;;;;;13.57;8.23;;;;;;;12.78;80.93;101454.00;5103537;27;20039;-71
2021/12/17 13:26:45;;;;;;;12.32;7.30;;;;;;;12.84;80.91;101455.84;5107336;27;20049;-72
2021/12/17 13:29:18;;;;;;;9.32;6.40;;;;;;;12.93;81.08;101455.13;5093015;28;20072;-72
2021/12/17 13:31:51;;;;;;;20.98;15.15;;;;;;;13.01;81.10;101438.47;5096762;28;20515;-71
2021/12/17 13:34:23;;;;;;;12.88;7.50;;;;;;;13.12;81.06;101436.00;5103361;28;20051;-71
2021/12/17 13:36:57;;;;;;;8.93;6.50;;;;;;;13.15;81.16;101428.13;5109600;27;20336;-71
2021/12/17 13:39:26;;;;;;;11.98;6.10;;;;;;;13.07;81.09;101421.75;5095591;28;20459;-71
2021/12/17 13:41:54;;;;;;;4.22;2.70;;;;;;;13.09;81.21;101418.28;5089934;28;20063;-70
2021/12/17 13:44:29;;;;;;;9.63;5.40;;;;;;;13.13;81.08;101424.53;5090203;28;20119;-70
2021/12/17 13:47:15;;;;;;;8.50;4.65;;;;;;;13.12;81.00;101426.34;5087251;28;20048;-72
2021/12/17 13:49:48;;;;;;;7.72;4.50;;;;;;;13.12;80.93;101426.34;5097392;27;20122;-70
2021/12/17 13:52:17;;;;;;;8.80;4.85;;;;;;;13.05;80.74;101424.41;5101885;28;20396;-70
2021/12/17 13:54:47;;;;;;;7.93;3.75;;;;;;;13.05;80.76;101428.81;5090194;28;20044;-70
2021/12/17 13:57:18;;;;;;;7.15;3.83;;;;;;;12.99;80.52;101436.69;5094251;28;20516;-70
2021/12/17 13:59:48;;;;;;;9.73;5.90;;;;;;;12.95;80.31;101440.13;5111918;27;20036;-70
2021/12/17 14:02:18;;;;;;;16.45;12.00;;;;;;;12.90;80.21;101436.50;5091714;28;20047;-72
2021/12/17 14:05:01;;;;;;;14.82;9.13;;;;;;;12.86;80.20;101443.53;5093158;28;20051;-70
2021/12/17 14:07:30;;;;;;;12.57;6.93;;;;;;;12.86;80.21;101442.63;5096529;27;20044;-71
2021/12/17 14:10:01;;;;;;;8.43;5.00;;;;;;;12.86;79.69;101447.94;5111032;27;20164;-71
2021/12/17 14:12:32;;;;;;;11.38;7.72;;;;;;;12.78;79.55;101451.34;5096563;27;20044;-71
2021/12/17 14:15:04;;;;;;;13.15;7.53;;;;;;;12.70;79.28;101445.00;5092123;27;20113;-71